sensor_id;sensor_type;location;lat;lon;timestamp;P1;durP1;ratioP1;P2;durP2;ratioP2
5137;SDS011;53959;53.626;11.410;2022-08-01T00:01:45;14.60;;;12.40;;
5137;SDS011;53959;53.626;11.410;2022-08-01T00:04:11;14.23;;;12.63;;
5137;SDS011;53959;53.626;11.410;2022-08-01T00:06:36;13.20;;;11.97;;
5137;SDS011;53959;53.626;11.410;2022-08-01T00:09:02;13.87;;;12.30;;
5137;SDS011;53959;53.626;11.410;2022-08-01T00:11:27;16.03;;;12.63;;
5137;SDS011;53959;53.626;11.410;2022-08-01T00:13:53;19.43;;;13.17;;
5137;SDS011;53959;53.626;11.410;2022-08-01T00:16:18;16.53;;;12.73;;
5137;SDS011;53959;53.626;11.410;2022-08-01T00:18:47;14.33;;;12.73;;
5137;SDS011;53959;53.626;11.410;2022-08-01T00:21:13;14.87;;;13.37;;
5137;SDS011;53959;53.626;11.410;2022-08-01T00:23:39;15.13;;;13.20;;
5137;SDS011;53959;53.626;11.410;2022-08-01T00:26:04;18.87;;;13.50;;
5137;SDS011;53959;53.626;11.410;2022-08-01T00:28:30;15.37;;;13.33;;
5137;SDS011;53959;53.626;11.410;2022-08-01T00:30:55;18.63;;;12.23;;
5137;SDS011;53959;53.626;11.410;2022-08-01T00:33:21;13.60;;;12.20;;
5137;SDS011;53959;53.626;11.410;2022-08-01T00:35:46;13.37;;;11.93;;
5137;SDS011;53959;53.626;11.410;2022-08-01T00:38:12;12.47;;;11.27;;
5137;SDS011;53959;53.626;11.410;2022-08-01T00:40:37;13.50;;;12.20;;
5137;SDS011;53959;53.626;11.410;2022-08-01T00:43:03;11.73;;;10.63;;
5137;SDS011;53959;53.626;11.410;2022-08-01T00:45:28;11.63;;;10.50;;
5137;SDS011;53959;53.626;11.410;2022-08-01T00:47:54;11.93;;;10.70;;
5137;SDS011;53959;53.626;11.410;2022-08-01T00:50:19;11.90;;;9.70;;
5137;SDS011;53959;53.626;11.410;2022-08-01T00:52:46;11.50;;;10.50;;
5137;SDS011;53959;53.626;11.410;2022-08-01T00:55:11;11.70;;;10.50;;
5137;SDS011;53959;53.626;11.410;2022-08-01T00:57:37;11.67;;;10.57;;
5137;SDS011;53959;53.626;11.410;2022-08-01T01:00:04;11.20;;;10.00;;
5137;SDS011;53959;53.626;11.410;2022-08-01T01:02:31;9.87;;;8.90;;
5137;SDS011;53959;53.626;11.410;2022-08-01T01:04:57;10.07;;;9.17;;
5137;SDS011;53959;53.626;11.410;2022-08-01T01:07:32;8.90;;;8.10;;
5137;SDS011;53959;53.626;11.410;2022-08-01T01:10:17;11.10;;;8.50;;
5137;SDS011;53959;53.626;11.410;2022-08-01T01:12:59;7.97;;;7.13;;
5137;SDS011;53959;53.626;11.410;2022-08-01T01:15:30;9.47;;;8.47;;
5137;SDS011;53959;53.626;11.410;2022-08-01T01:18:09;8.90;;;7.97;;
5137;SDS011;53959;53.626;11.410;2022-08-01T01:20:43;7.83;;;7.20;;
5137;SDS011;53959;53.626;11.410;2022-08-01T01:26:28;8.40;;;7.57;;
5137;SDS011;53959;53.626;11.410;2022-08-01T01:31:49;9.60;;;8.70;;
5137;SDS011;53959;53.626;11.410;2022-08-01T01:34:19;9.40;;;8.50;;
5137;SDS011;53959;53.626;11.410;2022-08-01T01:36:47;10.07;;;8.93;;
5137;SDS011;53959;53.626;11.410;2022-08-01T01:39:15;11.77;;;10.17;;
5137;SDS011;53959;53.626;11.410;2022-08-01T01:41:42;21.00;;;10.43;;
5137;SDS011;53959;53.626;11.410;2022-08-01T01:44:09;11.30;;;9.50;;
5137;SDS011;53959;53.626;11.410;2022-08-01T01:46:35;14.87;;;11.67;;
5137;SDS011;53959;53.626;11.410;2022-08-01T01:49:01;12.47;;;10.10;;
5137;SDS011;53959;53.626;11.410;2022-08-01T01:51:28;14.30;;;11.90;;
5137;SDS011;53959;53.626;11.410;2022-08-01T01:53:54;15.87;;;11.60;;
5137;SDS011;53959;53.626;11.410;2022-08-01T01:56:21;17.63;;;11.90;;
5137;SDS011;53959;53.626;11.410;2022-08-01T01:58:53;16.80;;;12.70;;
5137;SDS011;53959;53.626;11.410;2022-08-01T02:01:23;16.27;;;13.27;;
5137;SDS011;53959;53.626;11.410;2022-08-01T02:03:53;18.23;;;12.40;;
5137;SDS011;53959;53.626;11.410;2022-08-01T02:06:21;16.63;;;12.50;;
5137;SDS011;53959;53.626;11.410;2022-08-01T02:08:49;19.00;;;12.70;;
5137;SDS011;53959;53.626;11.410;2022-08-01T02:11:15;18.83;;;12.70;;
5137;SDS011;53959;53.626;11.410;2022-08-01T02:13:43;21.60;;;14.20;;
5137;SDS011;53959;53.626;11.410;2022-08-01T02:16:12;16.20;;;13.57;;
5137;SDS011;53959;53.626;11.410;2022-08-01T02:18:40;17.37;;;14.27;;
5137;SDS011;53959;53.626;11.410;2022-08-01T02:21:08;17.93;;;13.50;;
5137;SDS011;53959;53.626;11.410;2022-08-01T02:23:37;19.70;;;13.60;;
5137;SDS011;53959;53.626;11.410;2022-08-01T02:26:07;30.23;;;14.70;;
5137;SDS011;53959;53.626;11.410;2022-08-01T02:28:36;19.23;;;13.60;;
5137;SDS011;53959;53.626;11.410;2022-08-01T02:31:09;19.80;;;14.17;;
5137;SDS011;53959;53.626;11.410;2022-08-01T02:33:40;20.33;;;13.73;;
5137;SDS011;53959;53.626;11.410;2022-08-01T02:36:09;21.40;;;13.90;;
5137;SDS011;53959;53.626;11.410;2022-08-01T02:38:40;21.23;;;14.77;;
5137;SDS011;53959;53.626;11.410;2022-08-01T02:41:10;19.83;;;13.27;;
5137;SDS011;53959;53.626;11.410;2022-08-01T02:43:40;19.10;;;14.20;;
5137;SDS011;53959;53.626;11.410;2022-08-01T02:46:11;20.17;;;14.97;;
5137;SDS011;53959;53.626;11.410;2022-08-01T02:48:42;15.63;;;13.93;;
5137;SDS011;53959;53.626;11.410;2022-08-01T02:51:09;17.33;;;14.50;;
5137;SDS011;53959;53.626;11.410;2022-08-01T02:53:36;21.07;;;14.60;;
5137;SDS011;53959;53.626;11.410;2022-08-01T02:56:04;16.73;;;14.83;;
5137;SDS011;53959;53.626;11.410;2022-08-01T02:58:31;24.70;;;15.37;;
5137;SDS011;53959;53.626;11.410;2022-08-01T03:00:59;19.23;;;14.67;;
5137;SDS011;53959;53.626;11.410;2022-08-01T03:03:26;17.47;;;14.10;;
5137;SDS011;53959;53.626;11.410;2022-08-01T03:05:53;24.00;;;16.77;;
5137;SDS011;53959;53.626;11.410;2022-08-01T03:08:18;19.33;;;16.37;;
5137;SDS011;53959;53.626;11.410;2022-08-01T03:10:46;19.00;;;15.50;;
5137;SDS011;53959;53.626;11.410;2022-08-01T03:13:13;20.83;;;14.60;;
5137;SDS011;53959;53.626;11.410;2022-08-01T03:15:40;17.10;;;14.90;;
5137;SDS011;53959;53.626;11.410;2022-08-01T03:18:08;17.33;;;13.80;;
5137;SDS011;53959;53.626;11.410;2022-08-01T03:20:35;20.40;;;14.10;;
5137;SDS011;53959;53.626;11.410;2022-08-01T03:23:03;19.17;;;14.47;;
5137;SDS011;53959;53.626;11.410;2022-08-01T03:25:31;15.27;;;13.07;;
5137;SDS011;53959;53.626;11.410;2022-08-01T03:27:59;19.33;;;14.30;;
5137;SDS011;53959;53.626;11.410;2022-08-01T03:30:28;14.80;;;12.83;;
5137;SDS011;53959;53.626;11.410;2022-08-01T03:32:55;20.10;;;14.60;;
5137;SDS011;53959;53.626;11.410;2022-08-01T03:35:22;18.07;;;13.33;;
5137;SDS011;53959;53.626;11.410;2022-08-01T03:37:52;22.07;;;14.33;;
5137;SDS011;53959;53.626;11.410;2022-08-01T03:40:22;17.10;;;13.70;;
5137;SDS011;53959;53.626;11.410;2022-08-01T03:42:52;15.07;;;13.10;;
5137;SDS011;53959;53.626;11.410;2022-08-01T03:45:22;18.90;;;12.67;;
5137;SDS011;53959;53.626;11.410;2022-08-01T03:48:00;16.03;;;12.97;;
5137;SDS011;53959;53.626;11.410;2022-08-01T03:50:30;15.97;;;13.80;;
5137;SDS011;53959;53.626;11.410;2022-08-01T03:52:59;17.10;;;13.50;;
5137;SDS011;53959;53.626;11.410;2022-08-01T03:55:26;17.63;;;13.30;;
5137;SDS011;53959;53.626;11.410;2022-08-01T03:57:53;21.53;;;14.67;;
5137;SDS011;53959;53.626;11.410;2022-08-01T04:00:19;24.13;;;14.10;;
5137;SDS011;53959;53.626;11.410;2022-08-01T04:02:45;18.63;;;13.90;;
5137;SDS011;53959;53.626;11.410;2022-08-01T04:05:12;22.47;;;13.80;;
5137;SDS011;53959;53.626;11.410;2022-08-01T04:07:38;20.87;;;14.87;;
5137;SDS011;53959;53.626;11.410;2022-08-01T04:10:04;19.80;;;14.03;;
5137;SDS011;53959;53.626;11.410;2022-08-01T04:12:30;20.93;;;15.50;;
5137;SDS011;53959;53.626;11.410;2022-08-01T04:14:57;21.17;;;15.37;;
5137;SDS011;53959;53.626;11.410;2022-08-01T04:17:23;30.53;;;15.60;;
5137;SDS011;53959;53.626;11.410;2022-08-01T04:19:49;20.60;;;16.70;;
5137;SDS011;53959;53.626;11.410;2022-08-01T04:22:15;24.67;;;16.20;;
5137;SDS011;53959;53.626;11.410;2022-08-01T04:24:41;28.67;;;16.07;;
5137;SDS011;53959;53.626;11.410;2022-08-01T04:27:10;22.03;;;15.13;;
5137;SDS011;53959;53.626;11.410;2022-08-01T04:29:38;26.13;;;16.20;;
5137;SDS011;53959;53.626;11.410;2022-08-01T04:32:07;27.67;;;15.63;;
5137;SDS011;53959;53.626;11.410;2022-08-01T04:34:36;22.90;;;16.50;;
5137;SDS011;53959;53.626;11.410;2022-08-01T04:37:04;37.23;;;17.57;;
5137;SDS011;53959;53.626;11.410;2022-08-01T04:39:32;27.23;;;18.30;;
5137;SDS011;53959;53.626;11.410;2022-08-01T04:42:01;23.47;;;16.60;;
5137;SDS011;53959;53.626;11.410;2022-08-01T04:44:31;28.50;;;17.30;;
5137;SDS011;53959;53.626;11.410;2022-08-01T04:46:58;24.20;;;16.67;;
5137;SDS011;53959;53.626;11.410;2022-08-01T04:49:26;23.90;;;17.50;;
5137;SDS011;53959;53.626;11.410;2022-08-01T04:51:53;30.30;;;19.03;;
5137;SDS011;53959;53.626;11.410;2022-08-01T04:54:23;25.27;;;17.03;;
5137;SDS011;53959;53.626;11.410;2022-08-01T04:56:49;30.23;;;18.10;;
5137;SDS011;53959;53.626;11.410;2022-08-01T04:59:15;32.70;;;17.53;;
5137;SDS011;53959;53.626;11.410;2022-08-01T05:01:59;25.37;;;17.00;;
5137;SDS011;53959;53.626;11.410;2022-08-01T05:04:25;31.37;;;18.33;;
5137;SDS011;53959;53.626;11.410;2022-08-01T05:06:50;37.20;;;19.43;;
5137;SDS011;53959;53.626;11.410;2022-08-01T05:09:16;38.73;;;18.77;;
5137;SDS011;53959;53.626;11.410;2022-08-01T05:11:41;37.40;;;19.23;;
5137;SDS011;53959;53.626;11.410;2022-08-01T05:14:07;31.47;;;18.37;;
5137;SDS011;53959;53.626;11.410;2022-08-01T05:16:32;35.97;;;19.50;;
5137;SDS011;53959;53.626;11.410;2022-08-01T05:18:58;43.20;;;19.57;;
5137;SDS011;53959;53.626;11.410;2022-08-01T05:21:23;36.17;;;20.03;;
5137;SDS011;53959;53.626;11.410;2022-08-01T05:23:49;50.20;;;18.77;;
5137;SDS011;53959;53.626;11.410;2022-08-01T05:26:14;37.17;;;19.47;;
5137;SDS011;53959;53.626;11.410;2022-08-01T05:28:40;39.73;;;18.80;;
5137;SDS011;53959;53.626;11.410;2022-08-01T05:31:06;39.57;;;18.50;;
5137;SDS011;53959;53.626;11.410;2022-08-01T05:33:31;32.10;;;17.27;;
5137;SDS011;53959;53.626;11.410;2022-08-01T05:35:57;29.60;;;17.47;;
5137;SDS011;53959;53.626;11.410;2022-08-01T05:38:22;27.67;;;15.20;;
5137;SDS011;53959;53.626;11.410;2022-08-01T05:40:48;25.77;;;15.23;;
5137;SDS011;53959;53.626;11.410;2022-08-01T05:43:13;24.00;;;15.73;;
5137;SDS011;53959;53.626;11.410;2022-08-01T05:45:39;22.03;;;14.27;;
5137;SDS011;53959;53.626;11.410;2022-08-01T05:48:06;21.80;;;15.23;;
5137;SDS011;53959;53.626;11.410;2022-08-01T05:50:32;22.20;;;14.20;;
5137;SDS011;53959;53.626;11.410;2022-08-01T05:52:58;19.70;;;13.40;;
5137;SDS011;53959;53.626;11.410;2022-08-01T05:55:24;22.87;;;13.73;;
5137;SDS011;53959;53.626;11.410;2022-08-01T05:57:49;22.03;;;14.00;;
5137;SDS011;53959;53.626;11.410;2022-08-01T06:00:15;19.73;;;12.70;;
5137;SDS011;53959;53.626;11.410;2022-08-01T06:02:41;20.60;;;13.33;;
5137;SDS011;53959;53.626;11.410;2022-08-01T06:05:08;25.23;;;13.17;;
5137;SDS011;53959;53.626;11.410;2022-08-01T06:07:34;17.77;;;12.53;;
5137;SDS011;53959;53.626;11.410;2022-08-01T06:10:00;22.53;;;13.20;;
5137;SDS011;53959;53.626;11.410;2022-08-01T06:12:25;23.50;;;13.37;;
5137;SDS011;53959;53.626;11.410;2022-08-01T06:14:51;20.93;;;13.90;;
5137;SDS011;53959;53.626;11.410;2022-08-01T06:17:16;19.80;;;13.27;;
5137;SDS011;53959;53.626;11.410;2022-08-01T06:19:42;17.97;;;12.87;;
5137;SDS011;53959;53.626;11.410;2022-08-01T06:22:07;20.97;;;12.13;;
5137;SDS011;53959;53.626;11.410;2022-08-01T06:24:33;21.07;;;11.57;;
5137;SDS011;53959;53.626;11.410;2022-08-01T06:26:58;20.37;;;13.43;;
5137;SDS011;53959;53.626;11.410;2022-08-01T06:29:24;20.87;;;12.73;;
5137;SDS011;53959;53.626;11.410;2022-08-01T06:31:49;18.37;;;12.40;;
5137;SDS011;53959;53.626;11.410;2022-08-01T06:34:15;16.27;;;11.10;;
5137;SDS011;53959;53.626;11.410;2022-08-01T06:36:40;13.67;;;10.30;;
5137;SDS011;53959;53.626;11.410;2022-08-01T06:39:06;20.57;;;11.33;;
5137;SDS011;53959;53.626;11.410;2022-08-01T06:41:31;23.43;;;12.37;;
5137;SDS011;53959;53.626;11.410;2022-08-01T06:43:57;12.53;;;11.07;;
5137;SDS011;53959;53.626;11.410;2022-08-01T06:46:25;19.53;;;10.20;;
5137;SDS011;53959;53.626;11.410;2022-08-01T06:48:51;14.80;;;10.20;;
5137;SDS011;53959;53.626;11.410;2022-08-01T06:51:16;14.73;;;9.50;;
5137;SDS011;53959;53.626;11.410;2022-08-01T06:53:44;17.50;;;10.73;;
5137;SDS011;53959;53.626;11.410;2022-08-01T06:56:10;17.73;;;11.10;;
5137;SDS011;53959;53.626;11.410;2022-08-01T06:58:36;13.93;;;9.90;;
5137;SDS011;53959;53.626;11.410;2022-08-01T07:01:02;16.00;;;10.33;;
5137;SDS011;53959;53.626;11.410;2022-08-01T07:03:33;17.33;;;10.93;;
5137;SDS011;53959;53.626;11.410;2022-08-01T07:05:59;19.43;;;11.03;;
5137;SDS011;53959;53.626;11.410;2022-08-01T07:08:25;13.90;;;9.70;;
5137;SDS011;53959;53.626;11.410;2022-08-01T07:10:50;16.80;;;9.80;;
5137;SDS011;53959;53.626;11.410;2022-08-01T07:13:16;14.50;;;9.67;;
5137;SDS011;53959;53.626;11.410;2022-08-01T07:15:45;10.50;;;8.80;;
5137;SDS011;53959;53.626;11.410;2022-08-01T07:18:11;12.30;;;8.20;;
5137;SDS011;53959;53.626;11.410;2022-08-01T07:20:37;9.90;;;7.20;;
5137;SDS011;53959;53.626;11.410;2022-08-01T07:23:03;6.27;;;5.67;;
5137;SDS011;53959;53.626;11.410;2022-08-01T07:25:28;13.60;;;4.80;;
5137;SDS011;53959;53.626;11.410;2022-08-01T07:27:54;5.30;;;4.87;;
5137;SDS011;53959;53.626;11.410;2022-08-01T07:30:20;5.40;;;4.97;;
5137;SDS011;53959;53.626;11.410;2022-08-01T07:32:45;6.83;;;5.20;;
5137;SDS011;53959;53.626;11.410;2022-08-01T07:35:11;5.47;;;5.07;;
5137;SDS011;53959;53.626;11.410;2022-08-01T07:37:37;5.77;;;5.10;;
5137;SDS011;53959;53.626;11.410;2022-08-01T07:40:02;7.00;;;4.20;;
5137;SDS011;53959;53.626;11.410;2022-08-01T07:42:30;7.90;;;5.20;;
5137;SDS011;53959;53.626;11.410;2022-08-01T07:44:55;11.83;;;5.47;;
5137;SDS011;53959;53.626;11.410;2022-08-01T07:47:25;5.53;;;5.03;;
5137;SDS011;53959;53.626;11.410;2022-08-01T07:49:51;7.63;;;5.00;;
5137;SDS011;53959;53.626;11.410;2022-08-01T07:52:17;5.57;;;5.13;;
5137;SDS011;53959;53.626;11.410;2022-08-01T07:54:43;9.87;;;5.67;;
5137;SDS011;53959;53.626;11.410;2022-08-01T07:57:09;9.73;;;4.67;;
5137;SDS011;53959;53.626;11.410;2022-08-01T07:59:34;7.80;;;5.13;;
5137;SDS011;53959;53.626;11.410;2022-08-01T08:02:00;9.50;;;5.07;;
5137;SDS011;53959;53.626;11.410;2022-08-01T08:04:26;6.07;;;3.80;;
5137;SDS011;53959;53.626;11.410;2022-08-01T08:06:52;3.63;;;3.47;;
5137;SDS011;53959;53.626;11.410;2022-08-01T08:09:18;8.17;;;4.07;;
5137;SDS011;53959;53.626;11.410;2022-08-01T08:11:45;5.40;;;3.27;;
5137;SDS011;53959;53.626;11.410;2022-08-01T08:14:11;4.27;;;3.37;;
5137;SDS011;53959;53.626;11.410;2022-08-01T08:16:37;4.83;;;4.10;;
5137;SDS011;53959;53.626;11.410;2022-08-01T08:19:03;3.80;;;3.60;;
5137;SDS011;53959;53.626;11.410;2022-08-01T08:21:29;3.60;;;3.23;;
5137;SDS011;53959;53.626;11.410;2022-08-01T08:23:55;5.87;;;3.20;;
5137;SDS011;53959;53.626;11.410;2022-08-01T08:26:39;6.63;;;3.40;;
5137;SDS011;53959;53.626;11.410;2022-08-01T08:29:05;6.10;;;2.47;;
5137;SDS011;53959;53.626;11.410;2022-08-01T08:31:31;4.97;;;1.90;;
5137;SDS011;53959;53.626;11.410;2022-08-01T08:33:58;3.43;;;2.20;;
5137;SDS011;53959;53.626;11.410;2022-08-01T08:36:24;2.13;;;2.03;;
5137;SDS011;53959;53.626;11.410;2022-08-01T08:38:49;3.43;;;1.90;;
5137;SDS011;53959;53.626;11.410;2022-08-01T08:41:15;2.00;;;1.90;;
5137;SDS011;53959;53.626;11.410;2022-08-01T08:43:40;5.97;;;2.30;;
5137;SDS011;53959;53.626;11.410;2022-08-01T08:46:06;3.77;;;1.90;;
5137;SDS011;53959;53.626;11.410;2022-08-01T08:48:34;3.23;;;2.27;;
5137;SDS011;53959;53.626;11.410;2022-08-01T08:51:01;2.77;;;2.00;;
5137;SDS011;53959;53.626;11.410;2022-08-01T08:53:27;3.23;;;1.93;;
5137;SDS011;53959;53.626;11.410;2022-08-01T08:55:54;2.00;;;1.37;;
5137;SDS011;53959;53.626;11.410;2022-08-01T08:58:21;7.07;;;1.60;;
5137;SDS011;53959;53.626;11.410;2022-08-01T09:00:48;2.23;;;2.00;;
5137;SDS011;53959;53.626;11.410;2022-08-01T09:03:13;4.20;;;2.43;;
5137;SDS011;53959;53.626;11.410;2022-08-01T09:05:39;2.10;;;2.00;;
5137;SDS011;53959;53.626;11.410;2022-08-01T09:08:06;1.70;;;1.60;;
5137;SDS011;53959;53.626;11.410;2022-08-01T09:10:32;4.10;;;1.43;;
5137;SDS011;53959;53.626;11.410;2022-08-01T09:13:02;1.83;;;1.77;;
5137;SDS011;53959;53.626;11.410;2022-08-01T09:15:42;2.30;;;1.80;;
5137;SDS011;53959;53.626;11.410;2022-08-01T09:23:45;1.43;;;1.43;;
5137;SDS011;53959;53.626;11.410;2022-08-01T09:26:12;1.50;;;1.40;;
5137;SDS011;53959;53.626;11.410;2022-08-01T09:28:39;3.27;;;1.73;;
5137;SDS011;53959;53.626;11.410;2022-08-01T09:31:06;1.67;;;1.60;;
5137;SDS011;53959;53.626;11.410;2022-08-01T09:33:46;2.80;;;2.07;;
5137;SDS011;53959;53.626;11.410;2022-08-01T09:36:12;2.70;;;1.50;;
5137;SDS011;53959;53.626;11.410;2022-08-01T09:38:37;2.17;;;1.97;;
5137;SDS011;53959;53.626;11.410;2022-08-01T09:41:03;8.87;;;1.80;;
5137;SDS011;53959;53.626;11.410;2022-08-01T09:43:29;2.17;;;1.60;;
5137;SDS011;53959;53.626;11.410;2022-08-01T09:45:56;2.20;;;1.63;;
5137;SDS011;53959;53.626;11.410;2022-08-01T09:48:22;2.93;;;1.57;;
5137;SDS011;53959;53.626;11.410;2022-08-01T09:50:49;125.33;;;49.47;;
5137;SDS011;53959;53.626;11.410;2022-08-01T09:53:16;49.40;;;22.27;;
5137;SDS011;53959;53.626;11.410;2022-08-01T09:55:43;15.70;;;5.73;;
5137;SDS011;53959;53.626;11.410;2022-08-01T09:58:11;3.77;;;3.40;;
5137;SDS011;53959;53.626;11.410;2022-08-01T10:00:38;11.53;;;5.37;;
5137;SDS011;53959;53.626;11.410;2022-08-01T10:03:22;3.10;;;1.80;;
5137;SDS011;53959;53.626;11.410;2022-08-01T10:05:50;4.00;;;2.80;;
5137;SDS011;53959;53.626;11.410;2022-08-01T10:08:16;11.43;;;6.90;;
5137;SDS011;53959;53.626;11.410;2022-08-01T10:10:43;14.47;;;7.10;;
5137;SDS011;53959;53.626;11.410;2022-08-01T10:13:35;6.30;;;2.73;;
5137;SDS011;53959;53.626;11.410;2022-08-01T10:16:01;1.60;;;1.50;;
5137;SDS011;53959;53.626;11.410;2022-08-01T10:18:28;3.80;;;1.90;;
5137;SDS011;53959;53.626;11.410;2022-08-01T10:20:57;0.97;;;0.97;;
5137;SDS011;53959;53.626;11.410;2022-08-01T10:23:24;2.57;;;1.20;;
5137;SDS011;53959;53.626;11.410;2022-08-01T10:25:52;2.47;;;1.20;;
5137;SDS011;53959;53.626;11.410;2022-08-01T10:28:20;4.37;;;0.80;;
5137;SDS011;53959;53.626;11.410;2022-08-01T10:30:47;1.90;;;1.00;;
5137;SDS011;53959;53.626;11.410;2022-08-01T10:33:13;0.97;;;0.87;;
5137;SDS011;53959;53.626;11.410;2022-08-01T10:35:40;0.67;;;0.67;;
5137;SDS011;53959;53.626;11.410;2022-08-01T10:38:06;3.07;;;0.93;;
5137;SDS011;53959;53.626;11.410;2022-08-01T10:40:32;7.33;;;0.90;;
5137;SDS011;53959;53.626;11.410;2022-08-01T10:42:58;1.90;;;0.90;;
5137;SDS011;53959;53.626;11.410;2022-08-01T10:45:24;2.10;;;1.10;;
5137;SDS011;53959;53.626;11.410;2022-08-01T10:47:56;0.87;;;0.87;;
5137;SDS011;53959;53.626;11.410;2022-08-01T10:50:31;1.80;;;1.00;;
5137;SDS011;53959;53.626;11.410;2022-08-01T10:55:48;2.20;;;0.70;;
5137;SDS011;53959;53.626;11.410;2022-08-01T10:58:35;1.57;;;1.30;;
5137;SDS011;53959;53.626;11.410;2022-08-01T11:03:40;4.23;;;1.07;;
5137;SDS011;53959;53.626;11.410;2022-08-01T11:06:21;1.13;;;1.13;;
5137;SDS011;53959;53.626;11.410;2022-08-01T11:08:57;3.53;;;1.50;;
5137;SDS011;53959;53.626;11.410;2022-08-01T11:11:25;1.60;;;1.50;;
5137;SDS011;53959;53.626;11.410;2022-08-01T11:16:26;5.00;;;1.80;;
5137;SDS011;53959;53.626;11.410;2022-08-01T11:18:53;2.63;;;1.70;;
5137;SDS011;53959;53.626;11.410;2022-08-01T11:21:19;1.90;;;1.50;;
5137;SDS011;53959;53.626;11.410;2022-08-01T11:23:48;2.70;;;1.20;;
5137;SDS011;53959;53.626;11.410;2022-08-01T11:26:17;2.07;;;1.97;;
5137;SDS011;53959;53.626;11.410;2022-08-01T11:28:42;3.77;;;1.10;;
5137;SDS011;53959;53.626;11.410;2022-08-01T11:43:56;1.80;;;0.87;;
5137;SDS011;53959;53.626;11.410;2022-08-01T11:46:46;1.00;;;0.70;;
5137;SDS011;53959;53.626;11.410;2022-08-01T11:51:59;0.70;;;0.70;;
5137;SDS011;53959;53.626;11.410;2022-08-01T11:54:28;2.20;;;0.90;;
5137;SDS011;53959;53.626;11.410;2022-08-01T11:56:55;0.83;;;0.83;;
5137;SDS011;53959;53.626;11.410;2022-08-01T11:59:21;2.73;;;1.00;;
5137;SDS011;53959;53.626;11.410;2022-08-01T12:01:47;3.00;;;1.00;;
5137;SDS011;53959;53.626;11.410;2022-08-01T12:04:13;4.40;;;1.03;;
5137;SDS011;53959;53.626;11.410;2022-08-01T12:06:38;1.00;;;0.73;;
5137;SDS011;53959;53.626;11.410;2022-08-01T12:09:20;0.90;;;0.70;;
5137;SDS011;53959;53.626;11.410;2022-08-01T12:11:47;3.40;;;0.73;;
5137;SDS011;53959;53.626;11.410;2022-08-01T12:14:19;2.00;;;1.13;;
5137;SDS011;53959;53.626;11.410;2022-08-01T12:16:53;2.50;;;0.70;;
5137;SDS011;53959;53.626;11.410;2022-08-01T12:19:19;2.60;;;0.90;;
5137;SDS011;53959;53.626;11.410;2022-08-01T12:22:04;2.90;;;1.00;;
5137;SDS011;53959;53.626;11.410;2022-08-01T12:24:30;3.37;;;1.47;;
5137;SDS011;53959;53.626;11.410;2022-08-01T12:26:55;6.27;;;1.30;;
5137;SDS011;53959;53.626;11.410;2022-08-01T12:29:37;1.40;;;1.03;;
5137;SDS011;53959;53.626;11.410;2022-08-01T12:32:13;6.83;;;1.77;;
5137;SDS011;53959;53.626;11.410;2022-08-01T12:34:47;2.00;;;1.10;;
5137;SDS011;53959;53.626;11.410;2022-08-01T12:37:13;5.37;;;1.80;;
5137;SDS011;53959;53.626;11.410;2022-08-01T12:39:38;1.40;;;1.10;;
5137;SDS011;53959;53.626;11.410;2022-08-01T12:42:07;2.03;;;1.20;;
5137;SDS011;53959;53.626;11.410;2022-08-01T12:44:35;2.57;;;2.40;;
5137;SDS011;53959;53.626;11.410;2022-08-01T12:47:02;3.33;;;1.10;;
5137;SDS011;53959;53.626;11.410;2022-08-01T12:49:30;2.63;;;1.20;;
5137;SDS011;53959;53.626;11.410;2022-08-01T12:51:57;3.77;;;1.07;;
5137;SDS011;53959;53.626;11.410;2022-08-01T12:54:22;2.33;;;1.13;;
5137;SDS011;53959;53.626;11.410;2022-08-01T12:56:50;3.33;;;1.23;;
5137;SDS011;53959;53.626;11.410;2022-08-01T12:59:21;1.60;;;0.80;;
5137;SDS011;53959;53.626;11.410;2022-08-01T13:01:50;7.10;;;1.30;;
5137;SDS011;53959;53.626;11.410;2022-08-01T13:04:16;3.10;;;0.73;;
5137;SDS011;53959;53.626;11.410;2022-08-01T13:06:42;3.23;;;1.07;;
5137;SDS011;53959;53.626;11.410;2022-08-01T13:09:08;5.70;;;1.10;;
5137;SDS011;53959;53.626;11.410;2022-08-01T13:11:39;1.37;;;0.70;;
5137;SDS011;53959;53.626;11.410;2022-08-01T13:14:05;1.83;;;0.97;;
5137;SDS011;53959;53.626;11.410;2022-08-01T13:16:31;1.17;;;1.07;;
5137;SDS011;53959;53.626;11.410;2022-08-01T13:18:58;0.87;;;0.73;;
5137;SDS011;53959;53.626;11.410;2022-08-01T13:21:27;4.20;;;0.80;;
5137;SDS011;53959;53.626;11.410;2022-08-01T13:24:04;2.43;;;1.10;;
5137;SDS011;53959;53.626;11.410;2022-08-01T13:26:45;7.00;;;1.30;;
5137;SDS011;53959;53.626;11.410;2022-08-01T13:29:21;3.47;;;0.97;;
5137;SDS011;53959;53.626;11.410;2022-08-01T13:31:55;2.47;;;1.27;;
5137;SDS011;53959;53.626;11.410;2022-08-01T13:34:30;2.70;;;1.30;;
5137;SDS011;53959;53.626;11.410;2022-08-01T13:36:59;14.37;;;2.90;;
5137;SDS011;53959;53.626;11.410;2022-08-01T13:39:27;2.43;;;1.30;;
5137;SDS011;53959;53.626;11.410;2022-08-01T13:42:06;3.40;;;1.20;;
5137;SDS011;53959;53.626;11.410;2022-08-01T13:44:32;11.93;;;1.50;;
5137;SDS011;53959;53.626;11.410;2022-08-01T13:46:58;5.23;;;2.00;;
5137;SDS011;53959;53.626;11.410;2022-08-01T13:49:23;4.57;;;1.40;;
5137;SDS011;53959;53.626;11.410;2022-08-01T13:51:49;2.80;;;1.47;;
5137;SDS011;53959;53.626;11.410;2022-08-01T13:54:15;4.97;;;1.13;;
5137;SDS011;53959;53.626;11.410;2022-08-01T13:56:41;7.57;;;1.33;;
5137;SDS011;53959;53.626;11.410;2022-08-01T13:59:06;9.93;;;1.70;;
5137;SDS011;53959;53.626;11.410;2022-08-01T14:01:32;3.47;;;1.33;;
5137;SDS011;53959;53.626;11.410;2022-08-01T14:03:58;2.53;;;1.57;;
5137;SDS011;53959;53.626;11.410;2022-08-01T14:06:24;4.50;;;1.10;;
5137;SDS011;53959;53.626;11.410;2022-08-01T14:08:50;4.30;;;1.40;;
5137;SDS011;53959;53.626;11.410;2022-08-01T14:11:16;12.47;;;1.70;;
5137;SDS011;53959;53.626;11.410;2022-08-01T14:13:41;4.53;;;1.47;;
5137;SDS011;53959;53.626;11.410;2022-08-01T14:16:07;6.60;;;1.53;;
5137;SDS011;53959;53.626;11.410;2022-08-01T14:18:33;14.77;;;1.30;;
5137;SDS011;53959;53.626;11.410;2022-08-01T14:20:58;5.10;;;1.47;;
5137;SDS011;53959;53.626;11.410;2022-08-01T14:23:24;3.17;;;1.50;;
5137;SDS011;53959;53.626;11.410;2022-08-01T14:25:50;11.10;;;1.33;;
5137;SDS011;53959;53.626;11.410;2022-08-01T14:28:15;5.23;;;1.57;;
5137;SDS011;53959;53.626;11.410;2022-08-01T14:30:41;3.00;;;1.37;;
5137;SDS011;53959;53.626;11.410;2022-08-01T14:33:07;7.63;;;1.20;;
5137;SDS011;53959;53.626;11.410;2022-08-01T14:35:36;2.70;;;1.63;;
5137;SDS011;53959;53.626;11.410;2022-08-01T14:38:02;3.47;;;1.27;;
5137;SDS011;53959;53.626;11.410;2022-08-01T14:40:28;8.37;;;1.83;;
5137;SDS011;53959;53.626;11.410;2022-08-01T14:42:54;5.20;;;1.60;;
5137;SDS011;53959;53.626;11.410;2022-08-01T14:45:19;2.37;;;1.13;;
5137;SDS011;53959;53.626;11.410;2022-08-01T14:47:45;5.37;;;1.93;;
5137;SDS011;53959;53.626;11.410;2022-08-01T14:50:12;4.10;;;1.27;;
5137;SDS011;53959;53.626;11.410;2022-08-01T14:52:39;4.20;;;1.37;;
5137;SDS011;53959;53.626;11.410;2022-08-01T14:55:07;2.40;;;1.13;;
5137;SDS011;53959;53.626;11.410;2022-08-01T14:57:34;9.70;;;1.70;;
5137;SDS011;53959;53.626;11.410;2022-08-01T15:00:00;7.07;;;1.30;;
5137;SDS011;53959;53.626;11.410;2022-08-01T15:02:25;3.00;;;1.03;;
5137;SDS011;53959;53.626;11.410;2022-08-01T15:04:51;3.00;;;1.37;;
5137;SDS011;53959;53.626;11.410;2022-08-01T15:07:17;3.30;;;1.57;;
5137;SDS011;53959;53.626;11.410;2022-08-01T15:09:43;5.73;;;1.47;;
5137;SDS011;53959;53.626;11.410;2022-08-01T15:12:09;9.00;;;1.43;;
5137;SDS011;53959;53.626;11.410;2022-08-01T15:14:35;3.60;;;1.70;;